Airfield :
LOGIN :

Register | Disclaimer

   EN    FR    IT 

 










Legend :    VFR   Marginal VFR   IFR   Intensive IFR   Very Intensive IFR
Visi :
Ceiling :
>= 8 km
>= 3000ft
5 to 8 km
1000 to 3000 ft
1500m to 5 km
500 to 1000 ft
800 to 1500m
200 to 500 ft
< 800m
< 200 ft
Symbols :   Thunderstorms  Fog  Heavy snow  Heavy precipitations  Wind > 20 kt
SIGMETs :     Misc.  Thunderstorms  Icing  Turbulence  Mountain Waves  Volcanic Ashes







- Airport Elevation : 510 ft


LJCE - Cerklje

CURRENT METAR :
  • 212330Z AUTO 14004KT 4900 -SN BR NSC M01/M02 Q1019

EXPIRED METARs :
  • 212300Z AUTO 15002KT 9000 -SG BR NSC M01/M02 Q1019
  • 212230Z AUTO 14001KT 6000 -SN BR NSC M01/M02 Q1019
  • 212200Z AUTO 15002KT 5000 -SN BR NSC M01/M02 Q1019
  • 212130Z AUTO 15001KT 5000 -SN OVC047/// M01/M02 Q1019
  • 212100Z AUTO 16001KT 7000 -SN OVC042/// M00/M02 Q1019
  • 212030Z AUTO 17001KT 9999 -SG NSC M00/M02 Q1019

TAF TAF LJCE
Valid from the 22 at 00:00 until the 22 at 09:00 UTC


212300Z 2200/2209 08004KT 9999 BKN030 OVC055
TEMPO 2200/2209 6000 -SN OVC015
No reported NOTAMs for that airfield.



MET'MAP, your aeronautical weather chart ! - Copyright ORBIFLY December 2007 - Disclaimer

ORBIFLY MET'MAP TEAM :

Programming & Development : Alexandra Zaïnal
Concept & Development : Baudouin d'Aumeries
Co-Development & Prog : Marc-Olivier Méhu
Technical & hardware support : Manuel Goepfert

Contact : metmap@orbifly.com




SOURCES & CREDITS :

   NOAA